createdAt,value
2023-01-03T00:04:31.831Z,33.83
2023-01-03T00:12:38.250Z,38.15
2023-01-03T00:20:46.285Z,31.40
2023-01-03T00:28:51.622Z,53.22
2023-01-03T00:36:59.545Z,99.00
2023-01-03T00:45:04.856Z,98.82
2023-01-03T00:53:12.866Z,62.88
2023-01-03T01:01:19.982Z,55.13
2023-01-03T01:09:30.800Z,53.80
2023-01-03T01:17:36.253Z,53.83
2023-01-03T01:25:44.333Z,40.60
2023-01-03T01:33:50.123Z,33.13
2023-01-03T01:42:18.353Z,29.67
2023-01-03T01:50:28.509Z,33.55
2023-01-03T01:58:40.828Z,28.60
2023-01-03T02:06:47.220Z,32.78
2023-01-03T02:15:05.749Z,34.88
2023-01-03T02:23:52.454Z,31.80
2023-01-03T02:32:05.421Z,31.10
2023-01-03T02:40:17.086Z,28.47
2023-01-03T02:48:36.402Z,24.20
2023-01-03T02:56:45.676Z,24.98
2023-01-03T03:04:58.608Z,28.13
2023-01-03T03:13:16.850Z,24.97
2023-01-03T03:21:38.237Z,24.90
2023-01-03T03:29:44.036Z,30.77
2023-01-03T03:37:55.117Z,31.30
2023-01-03T03:46:08.062Z,57.08
2023-01-03T03:54:21.447Z,41.13
2023-01-03T04:02:29.111Z,36.85
2023-01-03T04:10:38.173Z,34.90
2023-01-03T04:18:43.801Z,47.38
2023-01-03T04:26:52.057Z,49.92
2023-01-03T04:34:57.515Z,46.70
2023-01-03T04:43:18.679Z,41.88
2023-01-03T04:51:24.162Z,33.33
2023-01-03T04:59:32.266Z,35.13
2023-01-03T05:07:37.854Z,29.02
2023-01-03T05:15:45.953Z,29.23
2023-01-03T05:24:03.692Z,28.00
2023-01-03T05:32:11.878Z,32.05
2023-01-03T05:40:17.500Z,31.80
2023-01-03T05:48:25.619Z,30.05
2023-01-03T05:56:31.188Z,24.35
2023-01-03T06:04:40.747Z,23.08
2023-01-03T06:12:46.727Z,23.10
2023-01-03T06:20:56.030Z,24.33
2023-01-03T06:29:04.595Z,27.48
2023-01-03T06:37:12.711Z,23.73
2023-01-03T06:45:36.453Z,24.70
2023-01-03T07:01:52.139Z,27.25
2023-01-03T07:10:00.360Z,24.58
2023-01-03T07:18:06.103Z,26.00
2023-01-03T07:26:14.176Z,23.98
2023-01-03T07:34:21.056Z,25.90
2023-01-03T07:42:42.382Z,22.13
2023-01-03T07:50:47.843Z,21.65
2023-01-03T07:58:58.127Z,20.13
2023-01-03T08:07:04.220Z,18.73
2023-01-03T08:15:13.291Z,17.23
2023-01-03T08:23:18.947Z,14.05
2023-01-03T08:31:31.782Z,18.25
2023-01-03T08:39:42.143Z,16.33
2023-01-03T08:47:51.435Z,14.52
2023-01-03T08:55:56.877Z,16.58
2023-01-03T09:04:10.463Z,14.13
2023-01-03T09:12:17.263Z,18.48
2023-01-03T09:20:26.758Z,18.33
2023-01-03T09:28:33.355Z,19.70
2023-01-03T09:36:41.395Z,18.85
2023-01-03T09:44:46.919Z,19.98
2023-01-03T09:53:08.388Z,19.10
2023-01-03T10:01:42.612Z,20.67
2023-01-03T10:09:59.955Z,17.58
2023-01-03T10:18:18.599Z,21.73
2023-01-03T10:26:32.740Z,23.40
2023-01-03T10:34:40.847Z,24.30
2023-01-03T10:42:51.539Z,23.30
2023-01-03T10:50:57.894Z,21.95
2023-01-03T10:59:24.895Z,21.73
2023-01-03T11:07:30.212Z,20.17
2023-01-03T11:15:41.380Z,17.63
2023-01-03T11:24:14.951Z,20.85
2023-01-03T11:32:32.851Z,24.60
2023-01-03T11:40:49.314Z,29.08
2023-01-03T11:49:21.999Z,22.05
2023-01-03T11:57:36.410Z,18.73
2023-01-03T12:05:54.663Z,18.20
2023-01-03T12:14:06.964Z,17.52
2023-01-03T12:22:22.787Z,21.70
2023-01-03T12:30:41.935Z,22.42
2023-01-03T12:39:03.179Z,23.55
2023-01-03T12:47:14.011Z,21.05
2023-01-03T12:55:29.325Z,21.95
2023-01-03T13:03:41.653Z,23.38
2023-01-03T13:11:54.363Z,23.65
2023-01-03T13:20:01.418Z,17.90
2023-01-03T13:28:37.506Z,13.70
2023-01-03T13:37:15.344Z,17.13
2023-01-03T13:45:50.645Z,16.92
2023-01-03T13:54:04.864Z,17.45
2023-01-03T14:02:49.088Z,16.95
2023-01-03T14:11:14.518Z,17.95
2023-01-03T14:19:25.809Z,19.33
2023-01-03T14:27:40.947Z,20.25
2023-01-03T14:35:47.977Z,20.77
2023-01-03T14:44:02.339Z,25.50
2023-01-03T14:52:12.980Z,23.33
2023-01-03T15:00:32.109Z,27.70
2023-01-03T15:08:47.607Z,27.30
2023-01-03T15:17:05.849Z,30.13
2023-01-03T15:25:22.059Z,23.05
2023-01-03T15:33:36.144Z,22.15
2023-01-03T15:42:19.673Z,16.88
2023-01-03T15:50:25.737Z,21.20
2023-01-03T15:58:33.131Z,24.23
2023-01-03T16:06:41.311Z,19.13
2023-01-03T16:14:49.113Z,16.58
2023-01-03T16:23:01.454Z,29.38
2023-01-03T16:31:16.144Z,28.60
2023-01-03T16:39:27.166Z,27.58
2023-01-03T16:47:36.433Z,26.83
2023-01-03T16:55:44.690Z,28.15
2023-01-03T17:03:51.259Z,55.35
2023-01-03T17:11:59.513Z,65.07
2023-01-03T17:20:06.416Z,43.63
2023-01-03T17:28:14.994Z,40.50
2023-01-03T17:36:26.080Z,37.00
2023-01-03T17:44:35.333Z,34.45
2023-01-03T17:52:41.833Z,36.90
2023-01-03T18:00:50.922Z,41.20
2023-01-03T18:08:57.408Z,64.43
2023-01-03T18:17:05.646Z,92.85
2023-01-03T18:25:22.351Z,90.38
2023-01-03T18:33:31.535Z,75.97
2023-01-03T18:41:37.915Z,54.53
2023-01-03T18:49:46.868Z,40.85
2023-01-03T18:57:53.999Z,34.67
2023-01-03T19:06:03.352Z,36.78
2023-01-03T19:14:10.014Z,40.75
2023-01-03T19:22:28.589Z,37.08
2023-01-03T19:30:39.115Z,40.92
2023-01-03T19:38:47.283Z,35.28
2023-01-03T19:46:52.727Z,40.92
2023-01-03T19:55:04.043Z,34.88
2023-01-03T20:03:32.873Z,37.25
2023-01-03T20:11:41.244Z,38.42
2023-01-03T20:19:48.997Z,35.75
2023-01-03T20:27:58.885Z,35.03
2023-01-03T20:36:17.892Z,33.38
2023-01-03T20:44:28.047Z,34.47
2023-01-03T20:52:34.144Z,37.75
2023-01-03T21:00:43.019Z,44.90
2023-01-03T21:08:58.377Z,39.72
2023-01-03T21:17:12.036Z,38.60
2023-01-03T21:33:28.839Z,66.50
2023-01-03T21:41:57.660Z,81.00
2023-01-03T21:50:05.648Z,78.93
2023-01-03T21:58:11.588Z,62.38
2023-01-03T22:06:20.776Z,61.97
2023-01-03T22:14:26.639Z,80.72
2023-01-03T22:22:34.771Z,86.05
2023-01-03T22:30:41.723Z,66.38
2023-01-03T22:38:50.068Z,70.90
2023-01-03T22:46:55.541Z,67.07
2023-01-03T22:55:03.527Z,60.50
2023-01-03T23:03:08.912Z,58.50
2023-01-03T23:11:34.196Z,55.17
2023-01-03T23:19:40.297Z,49.70
2023-01-03T23:27:49.939Z,54.42
2023-01-03T23:35:55.442Z,53.60
2023-01-03T23:44:03.402Z,49.28
2023-01-03T23:52:08.827Z,45.75
